Time;durP1;ratioP1;P1;durP2;ratioP2;P2;SDS_P1;SDS_P2;PMS_P1;PMS_P2;Temp;Humidity;BMP_temperature;BMP_pressure;BME280_temperature;BME280_humidity;BME280_pressure;Samples;Min_cycle;Max_cycle;Signal;HPM_P1;HPM_P2
2022/10/25 00:02:24;;;;;;;8.68;7.37;;;;;;;12.15;88.68;100021.59;2109600;82;21117;-77
2022/10/25 00:05:25;;;;;;;12.18;8.45;;;;;;;12.10;88.76;100026.09;2125935;82;21105;-81
2022/10/25 00:08:26;;;;;;;11.43;8.53;;;;;;;12.06;89.01;100030.64;2129046;82;20959;-77
2022/10/25 00:11:29;;;;;;;11.33;8.08;;;;;;;12.08;89.30;100025.47;2121660;82;21032;-77
2022/10/25 00:14:31;;;;;;;13.45;9.10;;;;;;;12.10;89.48;100020.78;2120440;82;21062;-77
2022/10/25 00:17:33;;;;;;;11.65;8.20;;;;;;;12.11;89.50;100021.63;2125639;82;21052;-77
2022/10/25 00:20:36;;;;;;;16.20;9.30;;;;;;;12.11;89.56;100023.78;2137217;82;21517;-77
2022/10/25 00:23:37;;;;;;;16.40;9.18;;;;;;;12.12;89.63;100024.61;2126603;82;21002;-77
2022/10/25 00:26:41;;;;;;;13.88;9.08;;;;;;;12.11;89.66;100026.45;2123966;82;20959;-78
2022/10/25 00:29:42;;;;;;;13.68;8.33;;;;;;;12.10;89.75;100028.77;2130583;82;21033;-77
2022/10/25 00:32:43;;;;;;;16.85;9.58;;;;;;;12.09;89.71;100023.64;2124095;82;21710;-77
2022/10/25 00:35:44;;;;;;;19.37;10.58;;;;;;;12.06;89.65;100027.48;2129938;82;21096;-78
2022/10/25 00:38:47;;;;;;;17.35;10.55;;;;;;;12.06;89.67;100023.48;2129370;82;21543;-76
2022/10/25 00:41:48;;;;;;;18.60;11.12;;;;;;;12.02;89.61;100018.22;2126382;82;21554;-77
2022/10/25 00:45:00;;;;;;;19.37;11.63;;;;;;;11.99;89.62;100019.87;2127994;82;20982;-77
2022/10/25 00:48:05;;;;;;;19.02;10.35;;;;;;;11.96;89.58;100013.59;2127085;82;21061;-77
2022/10/25 00:51:07;;;;;;;21.93;9.88;;;;;;;11.94;89.64;100020.09;2122443;82;21048;-76
2022/10/25 00:54:12;;;;;;;19.15;11.57;;;;;;;11.91;89.59;100018.64;2131548;82;21085;-76
2022/10/25 00:57:19;;;;;;;18.52;8.38;;;;;;;11.87;89.45;100020.80;2122042;82;21810;-77
2022/10/25 01:00:20;;;;;;;154.35;10.93;;;;;;;11.79;89.41;100023.48;2127613;82;21104;-77
2022/10/25 01:03:23;;;;;;;530.60;17.17;;;;;;;11.75;89.48;100032.83;2122576;82;21037;-78
2022/10/25 01:06:46;;;;;;;406.30;11.85;;;;;;;11.65;89.43;100026.39;2128093;82;21061;-77
2022/10/25 01:09:47;;;;;;;188.82;9.00;;;;;;;11.58;89.44;100028.11;2126712;82;21117;-87
2022/10/25 01:12:48;;;;;;;104.25;7.42;;;;;;;11.41;88.83;100025.23;2122776;82;21022;-77
2022/10/25 01:15:55;;;;;;;161.75;9.63;;;;;;;11.30;89.16;100026.95;2124185;82;21069;-85
2022/10/25 01:19:42;;;;;;;33.63;6.42;;;;;;;11.27;89.57;100019.33;2124285;82;21081;-82
2022/10/25 01:23:32;;;;;;;7.95;7.05;;;;;;;11.22;89.47;100022.50;2128044;82;21564;-78
2022/10/25 01:26:54;;;;;;;10.68;7.20;;;;;;;11.15;89.39;100021.04;2126883;82;21077;-80
2022/10/25 01:30:09;;;;;;;12.00;8.88;;;;;;;11.08;89.26;100025.38;2126360;82;20966;-80
2022/10/25 01:33:21;;;;;;;11.35;6.65;;;;;;;11.07;89.62;100021.58;2108421;82;21045;-78
2022/10/25 01:36:54;;;;;;;6.35;5.55;;;;;;;11.00;89.54;100013.45;2136724;82;21049;-79
2022/10/25 01:40:21;;;;;;;9.65;6.37;;;;;;;10.96;89.59;100013.48;2125911;82;21054;-79
2022/10/25 01:43:50;;;;;;;6.28;5.20;;;;;;;10.91;89.47;100013.98;2128872;82;21611;-78
2022/10/25 01:47:13;;;;;;;6.90;5.90;;;;;;;10.83;89.40;100017.17;2128462;82;21096;-78
2022/10/25 01:50:23;;;;;;;8.10;7.15;;;;;;;10.77;89.63;100008.88;2109433;82;21593;-78
2022/10/25 01:53:24;;;;;;;9.10;7.23;;;;;;;10.77;89.94;100014.20;2128269;82;21601;-78
2022/10/25 01:56:36;;;;;;;8.25;7.47;;;;;;;10.78;90.17;100016.34;2135155;82;21085;-79
2022/10/25 02:00:17;;;;;;;11.53;8.18;;;;;;;10.77;90.25;100014.20;2126469;82;21529;-79
2022/10/25 02:03:59;;;;;;;10.13;6.80;;;;;;;10.78;90.37;100017.67;2127088;82;21026;-79
2022/10/25 02:07:05;;;;;;;10.95;6.70;;;;;;;10.73;90.05;100012.89;2125257;82;21699;-79
2022/10/25 02:10:29;;;;;;;14.33;6.78;;;;;;;10.66;89.94;100008.42;2137651;82;21533;-80
2022/10/25 02:14:05;;;;;;;8.55;6.30;;;;;;;10.61;90.08;100012.91;2122228;82;21049;-78
2022/10/25 02:17:22;;;;;;;12.85;8.13;;;;;;;10.55;89.93;100010.43;2122160;82;21065;-78
2022/10/25 02:20:25;;;;;;;15.23;8.30;;;;;;;10.51;90.18;100021.06;2115051;82;21092;-80
2022/10/25 02:23:28;;;;;;;13.03;8.50;;;;;;;10.50;90.24;100023.40;2135322;82;21021;-77
2022/10/25 02:26:30;;;;;;;13.53;8.25;;;;;;;10.49;90.30;100031.51;2126538;82;21317;-83
2022/10/25 02:29:33;;;;;;;14.90;8.53;;;;;;;10.47;90.51;100025.06;2115341;82;20995;-81
2022/10/25 02:32:35;;;;;;;17.02;8.00;;;;;;;10.46;90.45;100032.67;2127874;82;21021;-77
2022/10/25 02:35:37;;;;;;;12.18;7.95;;;;;;;10.45;90.47;100023.57;2131116;82;21030;-79
2022/10/25 02:38:39;;;;;;;10.85;8.08;;;;;;;10.43;90.29;100030.86;2124306;82;21109;-80
2022/10/25 02:41:40;;;;;;;10.55;7.72;;;;;;;10.41;90.46;100027.54;2084093;84;21101;-78
2022/10/25 02:44:41;;;;;;;11.08;7.00;;;;;;;10.38;90.15;100026.55;2054553;85;21095;-80
2022/10/25 02:47:42;;;;;;;12.90;7.62;;;;;;;10.35;90.22;100022.91;2056915;86;21002;-90
2022/10/25 02:50:43;;;;;;;12.25;7.62;;;;;;;10.32;90.29;100024.07;2062893;84;21029;-77
2022/10/25 02:53:44;;;;;;;11.68;7.62;;;;;;;10.32;90.39;100024.89;2065088;84;21668;-78
2022/10/25 02:56:45;;;;;;;14.05;8.13;;;;;;;10.30;90.45;100025.58;2093642;84;21028;-77
2022/10/25 02:59:46;;;;;;;10.82;7.25;;;;;;;10.29;90.56;100021.25;2137746;82;21048;-79
2022/10/25 03:02:47;;;;;;;12.78;7.90;;;;;;;10.27;90.50;100024.56;2135436;82;21092;-78
2022/10/25 03:05:48;;;;;;;146.62;9.23;;;;;;;10.24;90.49;100026.19;2130923;82;21706;-78
2022/10/25 03:08:49;;;;;;;27.00;6.45;;;;;;;10.20;90.32;100032.02;2125763;82;21045;-78
2022/10/25 03:11:50;;;;;;;303.12;11.70;;;;;;;10.13;90.29;100031.83;2129339;82;20959;-78
2022/10/25 03:14:51;;;;;;;10.68;7.22;;;;;;;10.07;90.35;100036.47;2129021;82;20971;-81
2022/10/25 03:17:52;;;;;;;14.03;8.23;;;;;;;9.97;90.53;100034.00;2130719;82;21006;-80
2022/10/25 03:20:59;;;;;;;15.18;6.95;;;;;;;9.92;90.61;100037.63;2125770;82;21053;-78
2022/10/25 03:24:00;;;;;;;72.42;8.63;;;;;;;9.88;90.72;100032.31;2125609;82;21065;-78
2022/10/25 03:27:01;;;;;;;9.95;6.83;;;;;;;9.82;90.75;100035.12;2129651;82;22256;-78
2022/10/25 03:30:03;;;;;;;10.23;7.83;;;;;;;9.76;90.62;100039.75;2131180;82;21038;-80
2022/10/25 03:33:04;;;;;;;8.38;6.45;;;;;;;9.75;90.79;100037.28;2130294;82;21021;-79
2022/10/25 03:36:06;;;;;;;14.07;7.45;;;;;;;9.57;91.00;100004.28;2129657;82;21033;-78
2022/10/25 03:39:07;;;;;;;11.18;7.33;;;;;;;9.76;91.05;100040.26;2124454;82;21096;-79
2022/10/25 03:42:08;;;;;;;140.12;9.63;;;;;;;9.74;91.41;100031.16;2128592;82;21165;-79
2022/10/25 03:45:10;;;;;;;135.10;11.50;;;;;;;9.69;91.23;100030.81;2128072;82;21064;-78
2022/10/25 03:48:13;;;;;;;9.53;6.45;;;;;;;9.50;91.07;100029.28;2133061;82;21116;-78
2022/10/25 03:51:14;;;;;;;31.37;5.87;;;;;;;9.50;91.07;100029.28;2120630;82;21061;-78
2022/10/25 03:54:15;;;;;;;19.00;6.20;;;;;;;9.43;91.24;100034.88;2130171;82;21080;-78
2022/10/25 03:57:19;;;;;;;49.93;5.65;;;;;;;9.17;91.19;100004.52;2130458;82;21465;-79
2022/10/25 04:00:20;;;;;;;261.43;9.68;;;;;;;9.17;91.19;100004.52;2128123;82;20994;-77
2022/10/25 04:03:21;;;;;;;61.37;7.37;;;;;;;9.21;91.39;100024.41;2129945;82;21069;-79
2022/10/25 04:06:23;;;;;;;93.35;6.92;;;;;;;9.18;91.62;100030.02;2131157;82;21033;-79
2022/10/25 04:09:24;;;;;;;5.47;4.72;;;;;;;9.13;91.61;100021.73;2132014;82;21052;-78
2022/10/25 04:12:25;;;;;;;22.75;5.35;;;;;;;9.10;91.26;100027.34;2137655;82;21485;-78
2022/10/25 04:15:26;;;;;;;5.12;4.47;;;;;;;9.04;90.81;100022.19;2129889;82;21048;-78
2022/10/25 04:18:27;;;;;;;7.12;5.60;;;;;;;8.97;90.46;100026.44;2132406;82;21032;-78
2022/10/25 04:21:28;;;;;;;89.03;7.83;;;;;;;8.88;89.95;100034.84;2133154;82;20989;-79
2022/10/25 04:24:30;;;;;;;62.27;11.50;;;;;;;8.79;90.02;100029.18;2131485;82;21029;-91
2022/10/25 04:27:31;;;;;;;12.05;6.65;;;;;;;8.79;90.42;100035.80;2133419;82;21104;-80
2022/10/25 04:30:32;;;;;;;54.80;8.70;;;;;;;8.73;90.46;100043.86;2124370;82;20959;-78
2022/10/25 04:33:33;;;;;;;176.30;10.08;;;;;;;8.63;90.26;100039.16;2134048;82;20978;-82
2022/10/25 04:36:34;;;;;;;230.77;13.50;;;;;;;8.57;90.45;100031.03;2130229;82;21044;-78
2022/10/25 04:39:35;;;;;;;122.60;15.40;;;;;;;8.54;90.96;100040.11;2124772;82;21069;-78
2022/10/25 04:42:36;;;;;;;36.15;12.68;;;;;;;8.55;91.35;100035.64;2134391;82;21536;-77
2022/10/25 04:45:37;;;;;;;15.43;12.30;;;;;;;8.57;91.71;100032.35;2131074;82;21002;-80
2022/10/25 04:48:40;;;;;;;18.45;12.58;;;;;;;8.59;91.63;100035.65;2124616;82;21014;-77
2022/10/25 04:51:41;;;;;;;31.35;18.10;;;;;;;8.54;90.89;100041.42;2126825;82;21073;-77
2022/10/25 04:54:42;;;;;;;21.93;12.58;;;;;;;8.51;90.87;100047.85;2130086;82;20974;-75
2022/10/25 04:57:43;;;;;;;18.00;9.93;;;;;;;8.49;90.92;100049.81;2135642;82;21088;-78
2022/10/25 05:00:46;;;;;;;17.07;11.05;;;;;;;8.49;91.08;100047.67;2135040;82;20947;-80
2022/10/25 05:03:48;;;;;;;20.12;10.00;;;;;;;8.46;90.76;100052.77;2129865;82;21058;-78
2022/10/25 05:06:52;;;;;;;16.50;10.50;;;;;;;8.46;90.58;100052.77;2139456;82;21126;-78
2022/10/25 05:09:54;;;;;;;14.93;8.75;;;;;;;8.48;90.70;100053.95;2131208;82;21076;-82
2022/10/25 05:12:56;;;;;;;15.48;8.65;;;;;;;8.48;90.74;100058.74;2133514;82;21072;-82
2022/10/25 05:15:58;;;;;;;11.90;8.35;;;;;;;8.51;90.91;100057.61;2129773;82;21108;-81
2022/10/25 05:19:00;;;;;;;9.85;7.83;;;;;;;8.50;90.94;100058.10;2132480;82;21560;-81
2022/10/25 05:22:02;;;;;;;9.78;7.47;;;;;;;8.47;91.11;100057.06;2123113;82;21886;-81
2022/10/25 05:25:04;;;;;;;8.05;6.70;;;;;;;8.43;91.21;100057.05;2132458;82;21092;-80
2022/10/25 05:28:05;;;;;;;6.97;6.03;;;;;;;8.44;91.66;100061.34;2130682;82;21037;-85
2022/10/25 05:31:14;;;;;;;8.93;7.08;;;;;;;8.46;91.64;100063.84;2138396;82;21037;-81
2022/10/25 05:34:15;;;;;;;10.63;6.53;;;;;;;8.47;91.53;100069.45;2135155;82;21069;-89
2022/10/25 05:37:16;;;;;;;8.55;6.95;;;;;;;8.50;91.85;100073.12;2123355;82;21050;-81
2022/10/25 05:40:17;;;;;;;13.80;7.47;;;;;;;8.56;92.10;100072.52;2118048;82;21561;-80
2022/10/25 05:43:18;;;;;;;9.53;6.78;;;;;;;8.60;91.85;100071.71;2125481;82;21030;-80
2022/10/25 05:46:22;;;;;;;14.28;7.95;;;;;;;8.58;91.53;100077.14;2134734;82;21101;-80
2022/10/25 05:49:23;;;;;;;11.93;9.35;;;;;;;8.52;91.47;100079.91;2129482;82;21061;-82
2022/10/25 05:52:24;;;;;;;17.52;11.38;;;;;;;8.51;91.61;100082.23;2129667;82;21639;-83
2022/10/25 05:55:25;;;;;;;25.48;16.77;;;;;;;8.52;92.04;100089.17;2134497;82;21069;-80
2022/10/25 05:58:26;;;;;;;30.77;22.55;;;;;;;8.53;92.15;100092.17;2132595;82;21037;-82
2022/10/25 06:01:27;;;;;;;21.87;17.50;;;;;;;8.56;92.58;100095.00;2126203;82;21081;-80
2022/10/25 06:04:28;;;;;;;19.87;14.78;;;;;;;8.58;92.63;100093.51;2119311;82;21084;-81
2022/10/25 06:07:29;;;;;;;18.48;11.30;;;;;;;8.57;92.46;100093.18;2105853;84;21069;-81
2022/10/25 06:10:31;;;;;;;22.07;15.65;;;;;;;8.62;92.34;100096.20;2087004;84;20988;-80
2022/10/25 06:13:32;;;;;;;20.05;13.78;;;;;;;8.70;92.77;100102.38;2109961;84;21082;-80
2022/10/25 06:16:36;;;;;;;17.30;13.05;;;;;;;8.88;93.04;100111.58;2101537;84;20982;-84
2022/10/25 06:19:37;;;;;;;21.55;13.65;;;;;;;8.98;92.74;100114.10;2105689;84;21069;-78
2022/10/25 06:22:38;;;;;;;32.83;17.80;;;;;;;9.04;92.38;100124.09;2098984;84;21011;-79
2022/10/25 06:25:39;;;;;;;13.90;10.58;;;;;;;9.10;92.37;100124.78;2105319;84;21600;-77
2022/10/25 06:28:41;;;;;;;15.10;9.98;;;;;;;9.17;92.32;100128.44;2099909;84;22189;-80
2022/10/25 06:31:43;;;;;;;23.77;13.03;;;;;;;9.26;92.29;100123.19;2104500;84;20982;-79
2022/10/25 06:34:44;;;;;;;14.75;10.40;;;;;;;9.31;92.04;100124.38;2105257;84;21083;-86
2022/10/25 06:37:45;;;;;;;16.32;10.78;;;;;;;9.38;92.14;100128.06;2099373;84;21510;-83
2022/10/25 06:40:46;;;;;;;14.80;11.18;;;;;;;9.47;92.16;100142.67;2105709;84;21010;-81
2022/10/25 06:43:48;;;;;;;14.03;10.85;;;;;;;9.54;92.13;100148.47;2106147;84;20990;-79
2022/10/25 06:46:49;;;;;;;13.10;9.13;;;;;;;9.62;91.99;100148.51;2099305;84;21508;-80
2022/10/25 06:49:52;;;;;;;14.78;10.13;;;;;;;9.66;91.76;100146.39;2095597;84;21011;-79
2022/10/25 06:52:53;;;;;;;14.13;8.50;;;;;;;9.71;91.71;100148.55;2104499;84;21599;-80
2022/10/25 06:56:02;;;;;;;11.35;6.85;;;;;;;9.77;91.69;100150.55;2102237;84;21031;-79
2022/10/25 06:59:06;;;;;;;13.62;7.60;;;;;;;9.75;91.23;100130.84;2098194;84;21035;-79
2022/10/25 07:02:08;;;;;;;10.13;6.67;;;;;;;9.75;91.23;100130.84;2097300;84;21109;-80
2022/10/25 07:05:09;;;;;;;11.30;8.15;;;;;;;10.08;92.44;100132.27;2096661;84;21045;-80
2022/10/25 07:08:10;;;;;;;14.25;9.25;;;;;;;10.67;93.03;100154.22;2098551;84;21160;-80
2022/10/25 07:11:19;;;;;;;25.80;13.38;;;;;;;11.13;93.28;100155.81;2098951;84;21025;-81
2022/10/25 07:14:20;;;;;;;19.98;11.22;;;;;;;11.57;93.51;100150.05;2092705;84;21102;-80
2022/10/25 07:17:21;;;;;;;17.82;10.20;;;;;;;11.99;93.24;100152.01;2103043;84;21034;-82
2022/10/25 07:20:22;;;;;;;16.80;9.90;;;;;;;12.33;93.12;100149.81;2107879;84;21086;-82
2022/10/25 07:23:24;;;;;;;12.98;8.85;;;;;;;12.64;93.02;100149.39;2100526;84;21024;-79
2022/10/25 07:26:28;;;;;;;13.05;8.05;;;;;;;13.00;92.88;100153.05;2099506;84;20996;-80
2022/10/25 07:29:29;;;;;;;14.00;9.45;;;;;;;13.38;92.46;100150.36;2103785;84;21068;-80
2022/10/25 07:32:31;;;;;;;14.75;9.20;;;;;;;13.80;92.48;100148.03;2102644;84;21023;-80
2022/10/25 07:35:32;;;;;;;11.03;8.75;;;;;;;14.09;91.60;100152.45;2104334;84;21575;-87
2022/10/25 07:38:37;;;;;;;13.18;8.03;;;;;;;14.25;91.54;100156.23;2096637;84;21455;-80
2022/10/25 07:41:38;;;;;;;14.25;8.70;;;;;;;14.35;90.79;100154.05;2101572;84;21023;-82
2022/10/25 07:44:39;;;;;;;10.13;7.60;;;;;;;14.42;90.25;100150.13;2099795;84;21033;-80
2022/10/25 07:47:40;;;;;;;13.20;9.90;;;;;;;14.44;89.91;100153.92;2102329;84;21064;-79
2022/10/25 07:50:41;;;;;;;11.63;8.23;;;;;;;14.43;89.46;100157.62;2106958;84;21049;-79
2022/10/25 07:53:42;;;;;;;13.25;9.05;;;;;;;14.43;89.48;100151.77;2101317;84;21470;-80
2022/10/25 07:56:43;;;;;;;10.82;8.75;;;;;;;14.46;89.33;100150.56;2100842;84;21614;-80
2022/10/25 07:59:44;;;;;;;11.63;8.20;;;;;;;14.47;89.13;100154.39;2101667;84;21078;-80
2022/10/25 08:02:45;;;;;;;9.25;8.13;;;;;;;14.45;88.81;100158.27;2104302;84;21068;-79
2022/10/25 08:05:50;;;;;;;10.72;8.33;;;;;;;14.49;88.93;100162.19;2123322;82;21628;-83
2022/10/25 08:08:52;;;;;;;11.22;7.75;;;;;;;14.70;89.49;100164.07;2129159;82;21022;-90
2022/10/25 08:11:53;;;;;;;14.75;7.17;;;;;;;15.11;89.76;100166.02;2131030;82;20978;-82
2022/10/25 08:14:54;;;;;;;9.85;7.40;;;;;;;15.34;88.85;100165.75;2131636;82;21025;-80
2022/10/25 08:18:00;;;;;;;8.48;5.42;;;;;;;15.44;88.47;100163.04;2136490;82;21108;-81
2022/10/25 08:21:03;;;;;;;8.50;6.10;;;;;;;15.52;87.80;100164.73;2128222;82;21555;-80
2022/10/25 08:24:05;;;;;;;7.75;5.60;;;;;;;15.57;87.41;100166.31;2134953;82;21552;-80
2022/10/25 08:27:06;;;;;;;10.00;5.35;;;;;;;15.75;87.50;100163.64;2125656;82;20986;-82
2022/10/25 08:30:09;;;;;;;8.90;4.62;;;;;;;16.23;87.35;100160.91;2127124;82;20986;-80
2022/10/25 08:33:10;;;;;;;7.45;4.90;;;;;;;16.44;85.73;100156.70;2131890;82;21124;-81
2022/10/25 08:36:11;;;;;;;8.80;4.45;;;;;;;16.37;85.00;100161.25;2139232;82;21014;-82
2022/10/25 08:39:12;;;;;;;8.80;4.28;;;;;;;16.30;84.72;100159.05;2134515;82;21513;-80
2022/10/25 08:42:19;;;;;;;7.78;4.03;;;;;;;16.14;83.89;100162.43;2133412;82;21033;-79
2022/10/25 08:45:53;;;;;;;9.38;4.75;;;;;;;15.94;83.58;100164.23;2129160;82;20994;-79
2022/10/25 08:49:34;;;;;;;8.60;4.47;;;;;;;15.82;83.67;100161.80;2128035;82;21061;-80
2022/10/25 08:52:52;;;;;;;6.83;4.60;;;;;;;15.76;83.65;100161.27;2128073;82;21046;-79
2022/10/25 08:55:53;;;;;;;16.77;4.50;;;;;;;16.08;84.55;100167.26;2130175;82;21026;-79
2022/10/25 08:58:59;;;;;;;7.83;4.50;;;;;;;16.70;84.48;100162.63;2133950;82;21526;-79
2022/10/25 09:02:00;;;;;;;13.30;4.33;;;;;;;17.01;83.60;100174.09;2137270;82;20986;-79
2022/10/25 09:05:02;;;;;;;8.15;4.30;;;;;;;17.28;82.66;100176.72;2131071;82;21044;-78
2022/10/25 09:08:27;;;;;;;7.25;3.83;;;;;;;17.21;81.53;100174.58;2132328;82;21569;-79
2022/10/25 09:11:39;;;;;;;10.18;3.85;;;;;;;17.08;81.08;100167.89;2132501;82;21481;-83
2022/10/25 09:15:12;;;;;;;5.42;3.50;;;;;;;16.98;80.79;100170.48;2132689;82;21073;-86
2022/10/25 09:18:18;;;;;;;14.80;3.98;;;;;;;17.02;81.04;100167.68;2137419;82;21497;-80
2022/10/25 09:21:52;;;;;;;8.93;3.52;;;;;;;16.98;80.45;100176.36;2126879;82;21025;-81
2022/10/25 09:25:15;;;;;;;7.30;3.90;;;;;;;16.92;79.85;100176.67;2127076;82;21089;-83
2022/10/25 09:28:22;;;;;;;7.78;3.40;;;;;;;16.86;79.83;100183.36;2137762;82;21157;-83
2022/10/25 09:31:24;;;;;;;6.85;3.62;;;;;;;16.81;79.60;100182.66;2130101;82;21541;-82
2022/10/25 09:34:36;;;;;;;7.05;3.45;;;;;;;16.82;78.99;100186.97;2129587;82;20990;-83
2022/10/25 09:37:47;;;;;;;11.03;3.47;;;;;;;16.98;79.03;100181.73;2132120;82;21085;-84
2022/10/25 09:41:02;;;;;;;7.20;3.27;;;;;;;17.20;79.10;100193.02;2128285;82;21462;-83
2022/10/25 09:44:27;;;;;;;5.42;2.67;;;;;;;17.47;76.67;100196.49;2134592;82;21045;-83
2022/10/25 09:47:55;;;;;;;7.20;2.20;;;;;;;17.69;77.32;100189.01;2132996;82;21516;-84
2022/10/25 09:51:13;;;;;;;10.30;2.40;;;;;;;17.88;76.82;100182.78;2124385;82;21088;-83
2022/10/25 09:54:20;;;;;;;8.10;2.70;;;;;;;17.90;75.90;100194.10;2131798;82;21106;-83
2022/10/25 09:57:21;;;;;;;5.47;2.35;;;;;;;17.86;75.45;100198.27;2123209;82;21101;-83
2022/10/25 10:00:22;;;;;;;10.20;2.85;;;;;;;17.72;75.14;100199.31;2113502;82;21497;-88
2022/10/25 10:03:31;;;;;;;6.12;2.62;;;;;;;17.53;74.52;100199.67;2137675;82;21056;-83
2022/10/25 10:06:36;;;;;;;7.47;2.90;;;;;;;17.41;74.25;100191.45;2134704;82;21116;-83
2022/10/25 10:09:41;;;;;;;6.50;2.87;;;;;;;17.40;73.72;100196.52;2134345;82;21556;-82
2022/10/25 10:12:59;;;;;;;11.45;2.87;;;;;;;17.29;74.08;100188.27;2135328;82;21057;-81
2022/10/25 10:16:04;;;;;;;6.20;2.72;;;;;;;17.06;73.18;100191.39;2133763;82;21050;-82
2022/10/25 10:19:23;;;;;;;9.13;2.90;;;;;;;16.96;73.58;100189.14;2127592;82;21022;-83
2022/10/25 10:22:23;;;;;;;7.50;3.17;;;;;;;17.11;74.10;100197.77;2132993;82;21056;-82
2022/10/25 10:25:27;;;;;;;9.00;3.05;;;;;;;17.44;73.60;100188.34;2126381;82;21014;-83
2022/10/25 10:28:28;;;;;;;8.33;2.87;;;;;;;17.44;73.60;100188.34;2129725;82;21033;-82
2022/10/25 10:31:36;;;;;;;8.63;2.67;;;;;;;17.62;73.47;100192.22;2137601;82;21010;-82
2022/10/25 10:34:43;;;;;;;6.60;2.75;;;;;;;17.76;73.54;100187.11;2128779;82;21104;-87
2022/10/25 10:37:44;;;;;;;9.48;3.00;;;;;;;17.87;72.70;100181.11;2113727;82;21461;-83
2022/10/25 10:40:46;;;;;;;7.10;2.70;;;;;;;17.99;72.87;100184.47;2119969;82;21025;-82
2022/10/25 10:43:47;;;;;;;6.37;3.20;;;;;;;18.11;72.30;100182.78;2136028;82;21050;-82
2022/10/25 10:46:48;;;;;;;5.92;3.17;;;;;;;18.15;71.53;100180.77;2131460;82;21021;-82
2022/10/25 10:49:49;;;;;;;6.28;2.85;;;;;;;18.18;71.34;100180.05;2134365;82;21053;-82
2022/10/25 10:53:11;;;;;;;8.13;2.75;;;;;;;18.27;71.30;100182.77;2128454;82;21069;-81
2022/10/25 10:56:19;;;;;;;6.00;2.10;;;;;;;18.42;71.39;100183.84;2118066;82;21555;-82
2022/10/25 10:59:38;;;;;;;7.70;2.57;;;;;;;18.47;70.49;100183.99;2137098;82;21014;-82
2022/10/25 11:02:41;;;;;;;7.37;2.27;;;;;;;18.41;69.72;100191.05;2135412;82;21549;-84
2022/10/25 11:05:46;;;;;;;8.30;2.20;;;;;;;18.33;68.00;100180.59;2131229;82;21031;-82
2022/10/25 11:08:47;;;;;;;5.78;2.05;;;;;;;18.28;69.23;100185.78;2132866;82;21062;-82
2022/10/25 11:12:15;;;;;;;7.60;2.08;;;;;;;18.56;69.56;100186.74;2133025;82;21054;-82
2022/10/25 11:15:17;;;;;;;6.03;2.08;;;;;;;18.61;66.97;100188.23;2133063;82;21552;-82
2022/10/25 11:18:23;;;;;;;7.35;2.00;;;;;;;18.54;67.44;100180.75;2130147;82;21064;-82
2022/10/25 11:21:57;;;;;;;7.83;2.05;;;;;;;18.78;67.42;100185.37;2139330;82;21605;-84
2022/10/25 11:25:26;;;;;;;7.80;2.10;;;;;;;19.02;66.12;100189.08;2131409;82;21065;-82
2022/10/25 11:28:48;;;;;;;5.30;2.20;;;;;;;19.09;65.06;100189.04;2134794;82;21044;-81
2022/10/25 11:32:20;;;;;;;5.15;2.15;;;;;;;18.73;65.33;100193.23;2136350;82;21161;-82
2022/10/25 11:36:04;;;;;;;5.00;1.90;;;;;;;18.37;65.22;100192.54;2128564;82;21006;-81
2022/10/25 11:39:44;;;;;;;5.03;2.05;;;;;;;17.88;65.19;100202.09;2131211;82;21160;-81
2022/10/25 11:43:11;;;;;;;5.65;2.33;;;;;;;17.57;65.86;100200.06;2131750;82;21036;-83
2022/10/25 11:46:51;;;;;;;8.25;2.30;;;;;;;17.59;66.32;100204.19;2128909;82;21465;-82
2022/10/25 11:50:13;;;;;;;8.70;2.40;;;;;;;17.52;66.45;100198.03;2126338;82;21116;-83
2022/10/25 11:53:44;;;;;;;6.67;1.87;;;;;;;17.36;66.26;100196.61;2123466;82;21094;-84
2022/10/25 11:57:21;;;;;;;6.03;1.80;;;;;;;17.12;66.36;100202.62;2130365;82;21080;-84
2022/10/25 12:00:32;;;;;;;8.90;2.62;;;;;;;16.83;66.87;100206.55;2135182;82;21137;-81
2022/10/25 12:03:48;;;;;;;4.35;2.12;;;;;;;16.75;67.47;100209.72;2084019;84;21053;-81
2022/10/25 12:07:16;;;;;;;3.92;2.10;;;;;;;16.96;68.07;100202.02;2124858;82;21082;-84
2022/10/25 12:10:29;;;;;;;8.50;2.12;;;;;;;17.31;68.01;100204.98;2118859;82;21082;-72
2022/10/25 12:13:47;;;;;;;4.85;1.90;;;;;;;17.62;67.61;100203.77;2091034;83;20967;-72
2022/10/25 12:16:49;;;;;;;4.45;2.20;;;;;;;17.86;67.08;100198.78;2114259;83;21069;-72
2022/10/25 12:19:56;;;;;;;6.12;1.85;;;;;;;18.02;66.47;100196.97;2114582;83;21025;-71
2022/10/25 12:23:01;;;;;;;4.20;1.90;;;;;;;18.21;65.75;100191.70;2119049;83;21421;-72
2022/10/25 12:26:06;;;;;;;6.40;2.37;;;;;;;18.35;66.37;100195.42;2091695;83;21056;-72
2022/10/25 12:29:17;;;;;;;6.62;2.02;;;;;;;18.42;65.35;100189.22;2114955;83;21660;-72
2022/10/25 12:32:29;;;;;;;4.37;1.95;;;;;;;18.46;65.13;100197.95;2086570;83;21527;-72
2022/10/25 12:35:39;;;;;;;6.42;2.83;;;;;;;18.59;65.23;100197.05;2112904;83;21021;-74
2022/10/25 12:38:41;;;;;;;7.62;1.92;;;;;;;18.69;64.60;100193.34;2089555;83;21081;-73
2022/10/25 12:41:46;;;;;;;4.60;1.82;;;;;;;18.61;64.13;100192.26;2115116;83;21053;-72
2022/10/25 12:45:04;;;;;;;4.22;1.90;;;;;;;18.57;63.97;100184.34;2121368;83;21010;-78
2022/10/25 12:48:42;;;;;;;6.30;2.05;;;;;;;18.42;64.01;100194.06;2118880;83;21556;-73
2022/10/25 12:51:55;;;;;;;4.53;1.50;;;;;;;18.22;63.47;100188.81;2117062;83;21148;-72
2022/10/25 12:55:20;;;;;;;7.62;2.27;;;;;;;17.88;62.75;100191.35;2114465;83;21002;-71
2022/10/25 12:58:55;;;;;;;4.17;1.77;;;;;;;17.63;63.52;100197.91;2089868;83;20994;-72
2022/10/25 13:02:52;;;;;;;3.58;2.10;;;;;;;17.50;63.92;100193.39;2111931;83;20994;-72
2022/10/25 13:06:11;;;;;;;5.50;1.98;;;;;;;17.67;64.66;100191.89;2122795;81;21057;-72
2022/10/25 13:09:19;;;;;;;6.10;1.80;;;;;;;17.93;64.91;100194.20;2113628;83;21051;-73
2022/10/25 13:12:29;;;;;;;4.47;2.10;;;;;;;18.14;64.14;100186.37;2095342;83;21632;-74
2022/10/25 13:15:49;;;;;;;3.98;1.90;;;;;;;18.25;63.71;100200.47;2111974;83;21060;-72
2022/10/25 13:19:24;;;;;;;5.55;1.85;;;;;;;18.35;63.10;100196.77;2117746;83;21037;-72
2022/10/25 13:22:37;;;;;;;11.12;2.20;;;;;;;18.32;62.98;100197.20;2120403;83;21172;-72
2022/10/25 13:25:52;;;;;;;7.72;2.52;;;;;;;18.08;62.91;100206.03;2117964;83;21006;-75
2022/10/25 13:29:00;;;;;;;5.45;2.27;;;;;;;17.79;62.84;100204.68;2113814;83;21544;-71
2022/10/25 13:32:05;;;;;;;6.40;1.82;;;;;;;17.60;63.50;100211.75;2118023;83;21553;-71
2022/10/25 13:35:24;;;;;;;4.10;2.20;;;;;;;17.47;64.02;100209.91;2089476;83;21025;-70
2022/10/25 13:38:29;;;;;;;6.92;1.80;;;;;;;17.35;64.16;100212.41;2118646;83;21116;-70
2022/10/25 13:41:36;;;;;;;6.67;2.40;;;;;;;17.23;64.30;100211.38;2108696;83;21077;-77
2022/10/25 13:44:52;;;;;;;6.45;2.27;;;;;;;17.13;64.42;100219.03;2107227;83;21432;-71
2022/10/25 13:47:54;;;;;;;5.42;2.27;;;;;;;16.99;64.26;100216.86;2120597;83;21021;-71
2022/10/25 13:50:59;;;;;;;4.92;2.05;;;;;;;16.84;64.70;100214.40;2115765;83;21025;-71
2022/10/25 13:54:04;;;;;;;7.65;2.17;;;;;;;16.76;65.10;100209.20;2118398;83;21027;-71
2022/10/25 13:57:28;;;;;;;4.28;2.10;;;;;;;16.68;65.22;100218.77;2094247;83;20999;-71
2022/10/25 14:00:39;;;;;;;5.58;2.00;;;;;;;16.59;65.49;100221.64;2114319;83;21039;-72
2022/10/25 14:03:54;;;;;;;6.40;2.10;;;;;;;16.51;65.35;100225.03;2119401;83;21086;-71
2022/10/25 14:07:18;;;;;;;5.72;2.12;;;;;;;16.41;65.36;100228.60;2120922;82;21520;-71
2022/10/25 14:10:26;;;;;;;5.53;2.22;;;;;;;16.28;65.74;100231.56;2132941;82;21085;-71
2022/10/25 14:13:56;;;;;;;4.35;2.15;;;;;;;16.20;66.02;100236.27;2127215;82;21025;-71
2022/10/25 14:17:09;;;;;;;6.08;2.08;;;;;;;16.17;66.32;100235.34;2135218;82;21306;-73
2022/10/25 14:20:25;;;;;;;10.45;2.33;;;;;;;16.13;66.51;100231.72;2130081;82;21064;-71
2022/10/25 14:23:32;;;;;;;9.13;2.70;;;;;;;16.09;66.67;100232.31;2109967;82;21539;-72
2022/10/25 14:26:33;;;;;;;4.62;3.02;;;;;;;16.06;66.84;100242.91;2134645;82;21097;-71
2022/10/25 14:29:35;;;;;;;11.93;3.85;;;;;;;16.04;67.07;100250.30;2133123;82;21560;-88
2022/10/25 14:32:38;;;;;;;11.40;5.30;;;;;;;16.00;67.20;100246.90;2137331;82;21122;-88